Time;durP1;ratioP1;P1;durP2;ratioP2;P2;SDS_P1;SDS_P2;PMS_P1;PMS_P2;Temp;Humidity;BMP_temperature;BMP_pressure;BME280_temperature;BME280_humidity;BME280_pressure;Samples;Min_cycle;Max_cycle;Signal;HPM_P1;HPM_P2
2021/08/10 00:01:10;;;;;;;4.53;2.88;;;;;;;15.12;80.28;99684.72;5029860;28;20095;-69
2021/08/10 00:03:36;;;;;;;5.55;2.80;;;;;;;15.11;80.15;99686.53;5029378;28;20080;-70
2021/08/10 00:06:01;;;;;;;6.70;3.03;;;;;;;15.11;80.13;99685.66;5029014;28;20033;-70
2021/08/10 00:08:26;;;;;;;4.15;2.97;;;;;;;15.10;79.73;99687.47;5028843;28;20493;-70
2021/08/10 00:10:52;;;;;;;4.97;3.25;;;;;;;15.10;80.16;99686.63;5026760;28;20033;-71
2021/08/10 00:13:20;;;;;;;5.22;3.17;;;;;;;15.06;80.09;99688.63;5029105;28;20396;-70
2021/08/10 00:15:45;;;;;;;6.63;3.17;;;;;;;15.08;80.49;99694.69;5029240;28;20035;-70
2021/08/10 00:18:11;;;;;;;5.85;3.00;;;;;;;15.04;79.80;99687.91;5028730;28;20577;-71
2021/08/10 00:20:37;;;;;;;5.80;2.53;;;;;;;15.04;79.89;99685.25;5028469;28;20033;-71
2021/08/10 00:23:03;;;;;;;4.60;2.80;;;;;;;15.04;80.14;99674.63;5029041;28;20037;-71
2021/08/10 00:25:29;;;;;;;5.97;3.15;;;;;;;15.02;79.99;99674.75;5027360;28;20038;-71
2021/08/10 00:27:55;;;;;;;4.45;2.65;;;;;;;15.03;79.96;99681.72;5027908;28;20520;-71
2021/08/10 00:30:20;;;;;;;7.05;3.22;;;;;;;15.01;79.98;99682.78;5027147;28;20045;-71
2021/08/10 00:32:46;;;;;;;5.90;2.70;;;;;;;14.99;80.18;99682.06;5028666;28;20033;-71
2021/08/10 00:35:11;;;;;;;7.18;3.05;;;;;;;14.99;79.93;99680.28;5014723;28;20033;-72
2021/08/10 00:37:37;;;;;;;6.47;3.25;;;;;;;14.98;80.02;99683.00;5008185;28;20030;-72
2021/08/10 00:40:03;;;;;;;7.13;3.40;;;;;;;15.01;80.41;99683.66;5013122;28;20048;-71
2021/08/10 00:42:29;;;;;;;6.55;2.85;;;;;;;15.01;79.64;99677.50;5013066;28;20043;-71
2021/08/10 00:44:54;;;;;;;6.32;2.92;;;;;;;15.02;79.91;99684.50;5013156;28;20046;-71
2021/08/10 00:47:19;;;;;;;3.83;2.42;;;;;;;15.02;79.78;99680.03;5011037;28;20042;-71
2021/08/10 00:49:45;;;;;;;7.45;3.05;;;;;;;15.03;80.19;99673.75;5013437;28;20034;-72
2021/08/10 00:52:11;;;;;;;5.38;2.70;;;;;;;15.02;79.33;99669.44;5011566;28;20034;-71
2021/08/10 00:54:37;;;;;;;5.25;3.53;;;;;;;15.03;79.55;99667.63;5012526;28;20124;-71
2021/08/10 00:57:03;;;;;;;4.88;2.58;;;;;;;15.05;79.31;99667.53;5011562;28;20801;-71
2021/08/10 00:59:28;;;;;;;6.57;3.38;;;;;;;15.05;79.35;99667.53;5012610;28;20060;-72
2021/08/10 01:01:53;;;;;;;7.18;4.25;;;;;;;15.06;79.38;99669.22;4988714;28;20034;-72
2021/08/10 01:04:19;;;;;;;8.48;3.20;;;;;;;15.06;79.22;99672.69;5012708;28;20041;-72
2021/08/10 01:06:59;;;;;;;6.32;2.80;;;;;;;15.06;79.47;99666.56;5011924;28;20057;-72
2021/08/10 01:09:34;;;;;;;5.50;3.17;;;;;;;15.06;79.68;99667.38;4988539;28;20046;-70
2021/08/10 01:12:09;;;;;;;10.32;3.88;;;;;;;15.10;79.42;99665.38;5010553;28;20033;-71
2021/08/10 01:14:57;;;;;;;5.35;3.25;;;;;;;15.13;79.62;99665.16;5012340;28;20069;-71
2021/08/10 01:17:38;;;;;;;6.18;3.05;;;;;;;15.16;80.24;99660.50;5010232;28;20117;-71
2021/08/10 01:21:00;;;;;;;6.57;3.00;;;;;;;15.18;80.36;99657.72;5011016;28;20037;-71
2021/08/10 01:23:29;;;;;;;6.97;3.20;;;;;;;15.18;80.37;99649.75;4989840;28;20809;-71
2021/08/10 01:26:16;;;;;;;5.20;2.72;;;;;;;15.17;80.23;99643.59;4990110;28;20557;-71
2021/08/10 01:28:58;;;;;;;4.70;2.55;;;;;;;15.17;79.27;99643.59;4997147;28;20038;-70
2021/08/10 01:31:27;;;;;;;6.32;2.60;;;;;;;15.18;79.01;99639.97;5014557;28;20092;-71
2021/08/10 01:33:59;;;;;;;5.20;3.08;;;;;;;15.17;79.52;99638.28;5002940;28;20069;-70
2021/08/10 01:36:25;;;;;;;4.03;2.90;;;;;;;15.17;79.54;99638.28;5009342;28;20026;-71
2021/08/10 01:38:59;;;;;;;8.50;3.10;;;;;;;15.16;79.34;99641.03;5008640;28;20132;-71
2021/08/10 01:41:26;;;;;;;4.50;2.80;;;;;;;15.17;79.54;99638.28;5010550;28;20037;-68
2021/08/10 01:43:54;;;;;;;8.35;3.45;;;;;;;15.16;79.60;99636.59;5009980;28;20080;-70
2021/08/10 01:46:22;;;;;;;5.88;3.42;;;;;;;15.13;79.71;99634.16;5009573;28;20441;-69
2021/08/10 01:48:48;;;;;;;5.75;3.50;;;;;;;15.08;80.22;99633.63;5010872;28;20080;-70
2021/08/10 01:51:14;;;;;;;4.53;2.95;;;;;;;15.09;80.60;99630.03;5011723;28;20042;-70
2021/08/10 01:53:40;;;;;;;4.70;3.45;;;;;;;15.07;80.37;99637.25;5011586;28;20034;-68
2021/08/10 01:56:06;;;;;;;3.78;2.47;;;;;;;15.06;80.42;99640.84;5011878;28;20400;-68
2021/08/10 01:58:32;;;;;;;3.67;2.42;;;;;;;15.11;80.45;99641.41;5010926;28;20608;-69
2021/08/10 02:00:59;;;;;;;4.10;2.92;;;;;;;15.13;80.10;99647.41;5011562;28;20120;-69
2021/08/10 02:03:26;;;;;;;9.15;3.58;;;;;;;15.18;80.46;99641.78;5011340;28;20521;-70
2021/08/10 02:05:53;;;;;;;15.98;3.08;;;;;;;15.20;79.94;99639.88;5009287;28;20085;-70
2021/08/10 02:08:19;;;;;;;4.70;2.60;;;;;;;15.27;80.32;99645.63;5006817;28;20065;-71
2021/08/10 02:10:45;;;;;;;9.90;4.18;;;;;;;15.32;79.63;99649.63;5010191;28;20077;-70
2021/08/10 02:13:12;;;;;;;5.25;2.70;;;;;;;15.31;79.94;99650.59;5010072;28;20505;-70
2021/08/10 02:15:44;;;;;;;3.05;2.30;;;;;;;15.35;79.69;99656.53;5010984;28;20062;-69
2021/08/10 02:18:10;;;;;;;4.28;2.67;;;;;;;15.39;79.61;99671.31;5010406;28;20091;-70
2021/08/10 02:20:39;;;;;;;5.90;2.60;;;;;;;15.43;79.60;99683.41;5010444;28;20525;-69
2021/08/10 02:23:06;;;;;;;7.82;3.03;;;;;;;15.46;80.08;99685.84;5011198;28;20034;-71
2021/08/10 02:25:32;;;;;;;4.65;2.72;;;;;;;15.53;80.43;99691.56;5009880;28;20397;-70
2021/08/10 02:28:01;;;;;;;12.35;2.70;;;;;;;15.55;80.66;99700.28;5010797;28;20038;-70
2021/08/10 02:30:34;;;;;;;5.78;3.15;;;;;;;15.56;79.72;99725.91;5011017;28;20113;-70
2021/08/10 02:33:05;;;;;;;17.00;4.90;;;;;;;15.51;80.83;99725.38;5011322;28;20112;-70
2021/08/10 02:35:30;;;;;;;5.50;2.92;;;;;;;15.44;80.69;99717.00;5011122;28;20030;-70
2021/08/10 02:37:59;;;;;;;5.28;3.13;;;;;;;15.40;81.00;99718.16;5011061;28;20402;-70
2021/08/10 02:40:27;;;;;;;4.88;2.92;;;;;;;15.40;81.23;99708.38;5012276;28;20026;-69
2021/08/10 02:42:55;;;;;;;7.03;3.17;;;;;;;15.36;81.52;99720.19;5011587;28;20051;-70
2021/08/10 02:45:21;;;;;;;8.52;4.10;;;;;;;15.34;81.83;99716.78;5011529;28;20070;-70
2021/08/10 02:47:51;;;;;;;6.93;3.35;;;;;;;15.29;82.20;99726.03;5011855;28;20041;-70
2021/08/10 02:50:18;;;;;;;7.13;3.38;;;;;;;15.23;82.27;99741.44;5010812;28;20026;-69
2021/08/10 02:52:43;;;;;;;6.85;3.28;;;;;;;15.21;82.92;99740.72;5010753;28;20030;-69
2021/08/10 02:55:09;;;;;;;7.40;4.45;;;;;;;15.22;82.84;99731.78;5010402;28;20121;-69
2021/08/10 02:57:44;;;;;;;5.93;4.30;;;;;;;15.25;83.40;99718.25;5007872;28;20375;-69
2021/08/10 03:00:11;;;;;;;5.30;3.10;;;;;;;15.24;83.49;99734.31;5009245;28;20042;-69
2021/08/10 03:02:42;;;;;;;7.30;3.67;;;;;;;15.31;83.57;99718.78;5007577;28;20041;-69
2021/08/10 03:05:14;;;;;;;10.10;5.10;;;;;;;15.26;83.83;99711.19;5009800;28;20030;-69
2021/08/10 03:07:49;;;;;;;6.07;3.20;;;;;;;15.24;84.06;99729.03;5010258;28;20367;-69
2021/08/10 03:10:16;;;;;;;5.28;4.03;;;;;;;15.26;83.75;99751.00;5010813;28;20125;-70
2021/08/10 03:12:47;;;;;;;4.78;3.70;;;;;;;15.26;83.55;99737.72;5010906;28;20034;-69
2021/08/10 03:15:14;;;;;;;7.60;3.90;;;;;;;15.22;83.50;99694.59;5009178;28;20413;-68
2021/08/10 03:17:41;;;;;;;5.88;3.60;;;;;;;15.18;83.56;99679.81;5010231;28;20120;-69
2021/08/10 03:20:08;;;;;;;10.00;4.57;;;;;;;15.15;83.40;99668.56;5010316;28;20049;-69
2021/08/10 03:22:35;;;;;;;8.60;4.97;;;;;;;15.10;84.17;99641.50;5010531;28;20025;-69
2021/08/10 03:25:05;;;;;;;6.03;2.75;;;;;;;15.08;83.89;99648.72;5009183;28;20116;-70
2021/08/10 03:27:31;;;;;;;3.30;2.42;;;;;;;15.09;83.78;99653.94;5008795;28;20462;-70
2021/08/10 03:29:57;;;;;;;7.15;3.42;;;;;;;15.14;83.92;99658.91;5010799;28;20052;-71
2021/08/10 03:32:23;;;;;;;5.68;3.30;;;;;;;15.17;83.78;99664.00;5010444;28;20034;-70
2021/08/10 03:34:49;;;;;;;4.95;3.72;;;;;;;15.17;83.22;99670.16;5008041;28;20041;-69
2021/08/10 03:37:17;;;;;;;4.10;3.15;;;;;;;15.18;83.19;99678.97;5009662;28;20463;-70
2021/08/10 03:39:43;;;;;;;11.90;3.90;;;;;;;15.21;82.79;99684.94;5010733;28;20056;-69
2021/08/10 03:42:09;;;;;;;7.82;4.13;;;;;;;15.16;83.55;99671.13;5029962;28;20041;-69
2021/08/10 03:44:42;;;;;;;4.90;3.33;;;;;;;15.14;83.92;99670.38;5029435;28;20541;-71
2021/08/10 03:47:10;;;;;;;9.57;3.97;;;;;;;15.15;83.78;99668.56;5028405;28;20029;-71
2021/08/10 03:49:36;;;;;;;7.22;4.75;;;;;;;15.14;83.62;99659.75;5029764;28;20374;-71
2021/08/10 03:52:02;;;;;;;4.03;2.78;;;;;;;15.13;83.28;99659.84;5029885;28;20087;-69
2021/08/10 03:54:27;;;;;;;6.45;4.05;;;;;;;15.14;83.13;99661.56;5029214;28;20378;-70
2021/08/10 03:56:54;;;;;;;7.10;3.80;;;;;;;15.14;83.49;99658.91;5029093;28;20048;-69
2021/08/10 03:59:21;;;;;;;7.97;3.63;;;;;;;15.12;82.78;99648.41;5029913;28;20453;-70
2021/08/10 04:01:51;;;;;;;12.88;3.67;;;;;;;15.14;83.05;99643.84;5030224;28;20512;-70
2021/08/10 04:04:18;;;;;;;6.35;3.67;;;;;;;15.14;82.36;99643.00;5028990;28;20037;-69
2021/08/10 04:06:44;;;;;;;8.20;3.45;;;;;;;15.13;82.33;99635.97;5029071;28;20037;-69
2021/08/10 04:09:09;;;;;;;5.93;3.53;;;;;;;15.10;82.69;99645.00;5030066;28;20489;-69
2021/08/10 04:11:38;;;;;;;6.28;3.38;;;;;;;15.12;83.22;99644.91;5028259;28;20064;-69
2021/08/10 04:14:03;;;;;;;5.13;3.45;;;;;;;15.12;82.85;99650.22;5029293;28;20041;-69
2021/08/10 04:16:30;;;;;;;5.07;3.05;;;;;;;15.09;83.18;99645.09;5028656;28;20401;-69
2021/08/10 04:18:56;;;;;;;6.75;3.28;;;;;;;15.06;83.10;99651.47;5029040;28;20030;-69
2021/08/10 04:21:26;;;;;;;7.25;3.72;;;;;;;15.02;83.24;99648.19;5028705;28;20497;-69
2021/08/10 04:23:52;;;;;;;6.90;3.72;;;;;;;15.00;82.83;99642.13;5028990;28;20029;-69
2021/08/10 04:26:17;;;;;;;7.85;4.13;;;;;;;14.99;82.90;99634.28;5028143;28;20102;-70
2021/08/10 04:28:43;;;;;;;4.10;2.70;;;;;;;14.99;82.97;99640.44;5029296;28;20056;-69
2021/08/10 04:31:08;;;;;;;6.65;3.90;;;;;;;14.99;82.98;99639.59;5027735;28;20116;-69
2021/08/10 04:33:34;;;;;;;6.18;3.88;;;;;;;14.98;82.80;99645.84;5028901;28;20033;-70
2021/08/10 04:35:59;;;;;;;5.55;3.30;;;;;;;14.94;82.75;99639.91;5026376;28;20472;-69
2021/08/10 04:38:24;;;;;;;6.85;3.05;;;;;;;14.95;82.84;99644.25;5027489;28;20052;-70
2021/08/10 04:40:50;;;;;;;4.90;3.17;;;;;;;14.97;82.82;99657.44;5028760;28;20405;-70
2021/08/10 04:43:15;;;;;;;8.15;4.10;;;;;;;14.96;83.16;99655.72;5028527;28;20034;-70
2021/08/10 04:45:40;;;;;;;9.30;3.53;;;;;;;14.96;83.50;99655.72;5029282;28;20038;-70
2021/08/10 04:48:07;;;;;;;8.98;4.13;;;;;;;14.96;82.95;99653.94;5028157;28;20037;-69
2021/08/10 04:50:33;;;;;;;9.80;3.78;;;;;;;14.96;83.03;99661.03;5028328;28;20122;-71
2021/08/10 04:52:58;;;;;;;6.45;4.00;;;;;;;14.91;83.59;99671.97;5027343;28;20132;-69
2021/08/10 04:55:23;;;;;;;3.97;2.63;;;;;;;14.94;83.61;99671.78;5028913;28;20057;-68
2021/08/10 04:57:49;;;;;;;8.02;4.85;;;;;;;14.94;83.69;99673.56;5028077;28;20037;-69
2021/08/10 05:00:14;;;;;;;10.15;5.28;;;;;;;14.99;84.52;99666.16;5028479;28;20120;-70
2021/08/10 05:02:40;;;;;;;4.53;3.15;;;;;;;15.01;83.71;99672.19;5028895;28;20462;-70
2021/08/10 05:05:06;;;;;;;9.15;5.18;;;;;;;15.01;83.39;99682.78;5027885;28;20092;-69
2021/08/10 05:07:31;;;;;;;6.65;3.88;;;;;;;15.03;84.09;99684.38;5027839;28;20068;-70
2021/08/10 05:09:57;;;;;;;4.63;3.30;;;;;;;15.02;83.42;99687.16;5027998;28;20124;-69
2021/08/10 05:12:22;;;;;;;11.70;6.10;;;;;;;15.07;83.55;99682.38;5028727;28;20033;-69
2021/08/10 05:14:49;;;;;;;5.97;3.58;;;;;;;15.07;83.39;99690.34;5028814;28;20045;-69
2021/08/10 05:17:16;;;;;;;8.02;3.95;;;;;;;15.09;83.71;99683.13;5027693;28;20037;-69
2021/08/10 05:19:41;;;;;;;8.32;4.20;;;;;;;15.14;83.10;99688.13;5028226;28;20060;-69
2021/08/10 05:22:06;;;;;;;5.78;3.22;;;;;;;15.19;82.81;99688.66;5027837;28;20497;-70
2021/08/10 05:24:32;;;;;;;9.35;4.43;;;;;;;15.24;82.83;99681.22;5029423;28;20037;-68
2021/08/10 05:26:57;;;;;;;8.38;4.32;;;;;;;15.28;82.23;99685.31;5031325;28;20037;-69
2021/08/10 05:29:22;;;;;;;9.63;4.20;;;;;;;15.31;82.34;99687.78;5031331;28;20037;-69
2021/08/10 05:31:48;;;;;;;8.77;4.10;;;;;;;15.30;83.02;99679.91;5032275;28;20049;-69
2021/08/10 05:34:13;;;;;;;8.60;4.47;;;;;;;15.34;82.51;99681.41;5032221;28;20432;-69
2021/08/10 05:36:38;;;;;;;6.40;3.58;;;;;;;15.41;81.84;99680.03;5032019;28;20037;-70
2021/08/10 05:39:04;;;;;;;5.95;3.85;;;;;;;15.45;82.50;99681.47;5030697;28;20030;-68
2021/08/10 05:41:29;;;;;;;10.52;4.38;;;;;;;15.46;81.91;99676.06;5032336;28;20112;-69
2021/08/10 05:43:55;;;;;;;12.25;4.63;;;;;;;15.48;82.05;99688.38;5032464;28;20397;-69
2021/08/10 05:46:20;;;;;;;7.38;4.00;;;;;;;15.56;82.33;99694.88;5031571;28;20041;-70
2021/08/10 05:48:45;;;;;;;4.38;3.38;;;;;;;15.59;81.29;99689.31;5031985;28;20489;-69
2021/08/10 05:51:11;;;;;;;7.82;4.30;;;;;;;15.62;81.37;99696.22;5031559;28;20136;-70
2021/08/10 05:53:36;;;;;;;6.10;3.75;;;;;;;15.61;81.13;99687.41;5031504;28;20030;-69
2021/08/10 05:56:02;;;;;;;8.65;3.42;;;;;;;15.65;80.20;99694.22;5031553;28;20083;-69
2021/08/10 05:58:28;;;;;;;8.50;4.05;;;;;;;15.67;80.70;99689.63;5030931;28;20390;-69
2021/08/10 06:00:53;;;;;;;5.25;4.03;;;;;;;15.73;80.30;99699.00;5031158;28;20056;-70
2021/08/10 06:03:19;;;;;;;5.70;3.85;;;;;;;15.79;81.07;99700.38;5031855;28;20116;-70
2021/08/10 06:05:45;;;;;;;7.75;4.38;;;;;;;15.82;81.00;99700.97;5030801;28;20041;-69
2021/08/10 06:08:10;;;;;;;5.50;4.10;;;;;;;15.89;79.64;99696.06;5030290;28;20036;-69
2021/08/10 06:10:35;;;;;;;7.82;4.18;;;;;;;15.96;80.01;99699.16;5030997;28;20061;-70
2021/08/10 06:13:01;;;;;;;5.45;3.63;;;;;;;16.03;79.90;99689.75;5030957;28;20116;-70
2021/08/10 06:15:27;;;;;;;12.80;5.10;;;;;;;16.11;80.17;99690.03;5031138;28;20397;-69
2021/08/10 06:17:53;;;;;;;4.90;3.83;;;;;;;16.19;80.11;99695.63;5030364;28;20125;-70
2021/08/10 06:20:18;;;;;;;5.93;3.60;;;;;;;16.29;79.75;99693.13;5031207;28;20108;-67
2021/08/10 06:22:44;;;;;;;5.72;3.40;;;;;;;16.37;79.46;99695.25;5030794;28;20051;-67
2021/08/10 06:25:10;;;;;;;6.63;4.50;;;;;;;16.44;80.02;99684.03;5020898;28;20262;-65
2021/08/10 06:27:35;;;;;;;8.40;3.92;;;;;;;16.53;79.01;99683.31;5010198;28;20522;-66
2021/08/10 06:30:01;;;;;;;7.65;4.68;;;;;;;16.68;79.14;99694.59;5010917;28;20092;-67
2021/08/10 06:32:27;;;;;;;4.65;2.95;;;;;;;16.83;78.86;99689.13;5011039;28;20092;-66
2021/08/10 06:34:52;;;;;;;5.15;3.13;;;;;;;16.86;77.80;99684.41;5010464;28;20057;-66
2021/08/10 06:37:17;;;;;;;6.18;2.83;;;;;;;16.92;78.44;99689.25;5009629;28;20026;-66
2021/08/10 06:39:43;;;;;;;9.50;4.10;;;;;;;17.04;78.48;99683.97;5010930;28;20088;-66
2021/08/10 06:42:08;;;;;;;4.72;3.60;;;;;;;17.11;77.42;99680.69;5009977;28;20092;-66
2021/08/10 06:44:34;;;;;;;5.68;3.45;;;;;;;17.13;77.44;99683.22;5010586;28;20438;-66
2021/08/10 06:47:00;;;;;;;5.38;3.20;;;;;;;17.11;77.33;99678.03;5009155;28;20521;-66
2021/08/10 06:49:26;;;;;;;7.30;3.83;;;;;;;17.15;76.99;99692.81;5010332;28;20054;-66
2021/08/10 06:51:52;;;;;;;8.93;4.00;;;;;;;17.11;77.17;99693.16;5010385;28;20034;-66
2021/08/10 06:54:17;;;;;;;5.00;3.10;;;;;;;17.12;77.21;99687.72;5010634;28;20034;-65
2021/08/10 06:56:42;;;;;;;5.75;3.60;;;;;;;17.17;77.51;99698.00;5009985;28;20052;-64
2021/08/10 06:59:08;;;;;;;5.88;3.30;;;;;;;17.17;77.08;99679.34;5010202;28;20125;-66
2021/08/10 07:01:33;;;;;;;10.07;4.03;;;;;;;17.17;77.06;99684.69;5010475;28;20091;-67
2021/08/10 07:03:58;;;;;;;5.57;3.45;;;;;;;17.20;77.19;99688.94;5010304;28;20422;-66
2021/08/10 07:06:23;;;;;;;6.03;3.10;;;;;;;17.23;77.46;99686.00;5010126;28;20036;-67
2021/08/10 07:08:53;;;;;;;9.10;4.13;;;;;;;17.26;77.20;99691.13;4994886;28;20453;-66
2021/08/10 07:11:20;;;;;;;8.02;3.22;;;;;;;17.27;77.06;99692.81;5029406;28;20041;-73
2021/08/10 07:13:45;;;;;;;4.82;3.15;;;;;;;17.23;77.21;99691.34;4992641;28;20618;-70
2021/08/10 07:16:10;;;;;;;5.70;4.05;;;;;;;17.23;76.94;99689.56;5004149;28;20128;-71
2021/08/10 07:18:37;;;;;;;6.90;4.05;;;;;;;17.25;76.58;99692.91;5003340;28;20033;-71
2021/08/10 07:21:03;;;;;;;5.07;3.45;;;;;;;17.30;76.83;99695.22;5004172;28;20100;-70
2021/08/10 07:23:28;;;;;;;5.95;4.05;;;;;;;17.36;76.80;99694.75;5000772;28;20041;-70
2021/08/10 07:25:53;;;;;;;5.20;3.35;;;;;;;17.38;76.55;99700.81;4984314;28;20515;-70
2021/08/10 07:28:19;;;;;;;7.53;3.95;;;;;;;17.38;76.60;99700.81;5000713;28;20551;-71
2021/08/10 07:30:44;;;;;;;5.88;3.33;;;;;;;17.47;76.50;99708.06;5007039;28;20042;-70
2021/08/10 07:33:09;;;;;;;10.13;3.30;;;;;;;17.58;76.30;99699.22;5003682;28;20146;-71
2021/08/10 07:35:35;;;;;;;7.53;3.70;;;;;;;17.64;75.58;99706.72;5003971;28;20540;-71
2021/08/10 07:38:00;;;;;;;5.22;3.75;;;;;;;17.66;75.87;99699.44;5002130;28;20034;-71
2021/08/10 07:40:25;;;;;;;9.32;4.57;;;;;;;17.68;75.56;99710.00;5003497;28;20037;-70
2021/08/10 07:42:51;;;;;;;5.78;3.45;;;;;;;17.70;75.78;99708.06;5003799;28;20037;-70
2021/08/10 07:45:16;;;;;;;5.55;3.45;;;;;;;17.72;76.09;99714.97;5003034;28;20048;-71
2021/08/10 07:47:42;;;;;;;6.53;3.63;;;;;;;17.75;74.93;99708.56;5002006;28;20124;-71
2021/08/10 07:50:07;;;;;;;9.88;4.80;;;;;;;17.74;75.07;99709.50;5005214;28;20068;-71
2021/08/10 07:52:33;;;;;;;6.75;4.38;;;;;;;17.80;75.73;99717.91;5004190;28;20457;-72
2021/08/10 07:54:58;;;;;;;5.32;3.28;;;;;;;17.81;74.96;99718.75;5004624;28;20041;-71
2021/08/10 07:57:23;;;;;;;7.18;3.67;;;;;;;17.75;74.72;99714.72;5003977;28;20057;-72
2021/08/10 07:59:49;;;;;;;8.18;3.83;;;;;;;17.76;74.55;99716.41;5003710;28;20042;-72
2021/08/10 08:02:14;;;;;;;7.07;3.40;;;;;;;17.81;75.37;99716.06;5003506;28;20049;-72
2021/08/10 08:04:40;;;;;;;9.00;3.80;;;;;;;17.86;75.34;99713.88;5003451;28;20604;-70
2021/08/10 08:07:05;;;;;;;13.32;4.60;;;;;;;17.83;75.61;99722.13;5003099;28;20115;-71
2021/08/10 08:09:30;;;;;;;5.60;3.80;;;;;;;17.81;74.84;99718.75;5003056;28;20522;-70
2021/08/10 08:11:55;;;;;;;5.10;3.42;;;;;;;17.82;75.77;99720.47;5001423;28;20581;-71
2021/08/10 08:14:22;;;;;;;7.82;3.70;;;;;;;17.77;75.90;99720.78;5003642;28;20037;-71
2021/08/10 08:16:48;;;;;;;8.57;3.65;;;;;;;17.71;76.78;99721.25;5003332;28;20840;-70
2021/08/10 08:19:14;;;;;;;4.63;3.28;;;;;;;17.55;76.55;99718.97;5003009;28;20033;-70
2021/08/10 08:21:39;;;;;;;8.80;3.92;;;;;;;17.50;77.47;99714.97;5002708;28;20038;-72
2021/08/10 08:24:05;;;;;;;9.93;3.72;;;;;;;17.50;77.62;99718.50;4984172;28;20039;-72
2021/08/10 08:26:31;;;;;;;6.35;4.35;;;;;;;17.52;77.97;99723.69;4999681;28;20127;-72
2021/08/10 08:28:56;;;;;;;6.85;4.10;;;;;;;17.56;78.28;99722.50;5003040;28;20124;-73
2021/08/10 08:31:22;;;;;;;7.57;4.00;;;;;;;17.65;78.33;99712.94;5001714;28;20383;-71
2021/08/10 08:33:47;;;;;;;8.80;4.35;;;;;;;17.69;77.92;99717.03;5003163;28;20066;-70
2021/08/10 08:36:13;;;;;;;6.07;3.63;;;;;;;17.73;77.73;99719.31;5002361;28;20113;-72
2021/08/10 08:38:38;;;;;;;9.88;3.95;;;;;;;17.81;76.75;99721.41;5001500;28;20115;-72
2021/08/10 08:41:04;;;;;;;7.32;4.10;;;;;;;17.93;77.17;99722.25;5002485;28;20092;-71
2021/08/10 08:43:29;;;;;;;6.15;3.70;;;;;;;18.05;77.62;99731.91;5001130;28;20030;-72
2021/08/10 08:45:55;;;;;;;8.73;4.25;;;;;;;18.10;77.20;99729.72;5002154;28;20050;-72
2021/08/10 08:48:24;;;;;;;6.85;4.50;;;;;;;18.13;77.01;99728.63;5001586;28;20394;-71
2021/08/10 08:50:50;;;;;;;6.05;3.70;;;;;;;18.13;77.13;99731.28;5002422;28;20072;-71
2021/08/10 08:53:16;;;;;;;12.80;5.45;;;;;;;18.14;77.44;99731.19;5002585;28;20588;-72
2021/08/10 08:55:46;;;;;;;7.38;4.75;;;;;;;18.17;77.13;99728.25;5001814;28;20038;-71
2021/08/10 08:58:12;;;;;;;9.80;4.72;;;;;;;18.18;76.42;99731.75;5002659;28;20070;-72
2021/08/10 09:00:39;;;;;;;7.15;3.97;;;;;;;18.16;76.05;99731.91;5006144;28;20069;-72
2021/08/10 09:03:04;;;;;;;7.53;4.45;;;;;;;18.16;75.32;99733.69;5006619;28;20045;-72
2021/08/10 09:05:32;;;;;;;7.18;3.95;;;;;;;18.18;76.17;99735.28;5006501;28;20034;-72
2021/08/10 09:07:59;;;;;;;6.80;4.82;;;;;;;18.20;76.33;99736.00;5006958;28;20493;-72
2021/08/10 09:10:28;;;;;;;6.25;4.00;;;;;;;18.19;76.18;99728.97;5006780;28;20125;-72
2021/08/10 09:12:56;;;;;;;7.43;4.82;;;;;;;18.22;76.48;99717.22;5006381;28;20642;-72
2021/08/10 09:15:37;;;;;;;6.70;4.05;;;;;;;18.29;75.69;99726.41;5006802;28;20053;-71
2021/08/10 09:18:11;;;;;;;9.05;3.97;;;;;;;18.52;75.03;99718.31;5006810;28;20038;-72
2021/08/10 09:20:38;;;;;;;10.07;4.35;;;;;;;19.07;73.79;99719.88;5005711;28;20046;-70
2021/08/10 09:23:04;;;;;;;7.68;4.32;;;;;;;19.30;73.28;99719.72;5006468;28;20088;-72
2021/08/10 09:25:31;;;;;;;12.68;5.05;;;;;;;19.36;72.35;99713.81;5006624;28;20423;-71
2021/08/10 09:28:09;;;;;;;7.18;4.43;;;;;;;19.88;70.66;99708.41;5005432;28;20038;-72
2021/08/10 09:30:35;;;;;;;6.75;4.30;;;;;;;20.68;68.37;99706.53;5004752;28;20033;-71
2021/08/10 09:33:07;;;;;;;9.25;4.35;;;;;;;20.96;66.61;99700.28;5006155;28;20042;-71
2021/08/10 09:35:34;;;;;;;6.80;3.47;;;;;;;21.10;64.19;99696.31;5006533;28;20466;-70
2021/08/10 09:38:06;;;;;;;11.25;3.88;;;;;;;21.26;62.57;99705.56;5004269;28;20180;-70
2021/08/10 09:40:42;;;;;;;9.15;4.10;;;;;;;20.77;62.41;99694.94;5004268;28;20126;-71
2021/08/10 09:43:26;;;;;;;5.40;3.72;;;;;;;22.11;59.84;99699.09;5006199;28;20037;-70
2021/08/10 09:46:54;;;;;;;6.78;4.38;;;;;;;23.20;56.61;99704.25;5005359;28;20073;-71
2021/08/10 09:57:17;;;;;;;7.03;3.65;;;;;;;24.18;54.09;99699.28;4859673;29;20056;-71
2021/08/10 09:59:43;;;;;;;4.38;3.72;;;;;;;24.57;52.05;99703.25;4883554;29;20044;-70
2021/08/10 10:02:20;;;;;;;6.97;3.35;;;;;;;24.99;49.80;99696.84;4926635;28;20036;-70
2021/08/10 10:04:51;;;;;;;4.88;3.50;;;;;;;25.76;49.36;99696.28;4985538;28;20129;-71
2021/08/10 10:07:17;;;;;;;6.28;4.32;;;;;;;25.94;48.95;99693.34;4989383;28;20034;-72
2021/08/10 10:09:43;;;;;;;3.95;3.05;;;;;;;25.85;48.48;99697.94;4985630;28;20427;-71
2021/08/10 10:12:09;;;;;;;4.95;3.90;;;;;;;26.48;48.18;99696.91;4985095;28;20049;-71
2021/08/10 10:14:35;;;;;;;4.78;3.35;;;;;;;26.97;46.56;99688.38;4981718;28;20123;-71
2021/08/10 10:17:02;;;;;;;5.43;3.38;;;;;;;27.43;45.42;99684.69;5009521;28;20035;-71
2021/08/10 10:19:29;;;;;;;4.15;3.08;;;;;;;27.18;44.41;99693.09;4986586;28;20494;-71
2021/08/10 10:21:57;;;;;;;6.03;3.70;;;;;;;27.53;43.96;99692.53;4985968;28;20038;-70
2021/08/10 10:24:27;;;;;;;4.97;3.25;;;;;;;27.87;43.48;99686.56;4986120;28;20112;-70
2021/08/10 10:26:58;;;;;;;5.22;2.95;;;;;;;28.01;41.61;99687.56;4985348;28;20058;-70
2021/08/10 10:29:24;;;;;;;5.78;2.67;;;;;;;27.70;42.77;99685.91;4985568;28;20113;-70
2021/08/10 10:31:50;;;;;;;5.18;3.42;;;;;;;27.41;43.12;99687.59;4986181;28;20058;-70
2021/08/10 10:34:16;;;;;;;5.90;3.20;;;;;;;25.88;46.13;99694.91;4985602;28;20132;-71
2021/08/10 10:36:44;;;;;;;4.93;3.90;;;;;;;25.87;45.34;99685.97;4984566;28;20125;-70
2021/08/10 10:39:19;;;;;;;6.55;3.70;;;;;;;26.80;44.04;99686.00;4985931;28;20039;-71
2021/08/10 10:41:46;;;;;;;5.07;3.38;;;;;;;26.19;44.47;99673.28;4991920;28;20712;-70
2021/08/10 10:44:12;;;;;;;6.45;3.40;;;;;;;26.10;45.18;99688.69;5005142;28;20505;-72
2021/08/10 10:46:39;;;;;;;6.50;4.07;;;;;;;25.28;47.60;99674.72;5003296;28;20045;-71
2021/08/10 10:49:07;;;;;;;6.93;3.47;;;;;;;25.58;46.68;99669.53;5003895;28;20061;-70
2021/08/10 10:51:35;;;;;;;6.68;3.95;;;;;;;25.36;48.06;99671.97;5005155;28;20040;-71
2021/08/10 10:54:27;;;;;;;7.28;4.20;;;;;;;24.55;48.66;99673.75;5004909;28;20736;-71
2021/08/10 10:56:57;;;;;;;5.75;3.03;;;;;;;23.74;51.13;99677.97;5023758;28;20501;-71
2021/08/10 10:59:38;;;;;;;5.60;3.78;;;;;;;23.39;52.75;99665.53;5024342;28;20037;-72
2021/08/10 11:02:13;;;;;;;6.57;3.55;;;;;;;23.16;52.65;99673.31;5023214;28;20048;-70
2021/08/10 11:07:50;;;;;;;9.60;3.95;;;;;;;22.57;54.22;99672.19;5003292;28;20072;-70
2021/08/10 11:10:34;;;;;;;6.85;3.80;;;;;;;22.26;55.28;99676.13;5022462;28;20501;-70
2021/08/10 11:12:59;;;;;;;7.70;4.15;;;;;;;22.01;57.65;99680.38;5009196;28;20404;-67
2021/08/10 11:15:43;;;;;;;4.25;2.97;;;;;;;22.23;55.44;99676.44;5008312;28;20514;-66
2021/08/10 11:18:09;;;;;;;5.30;3.58;;;;;;;22.40;55.23;99672.06;5007694;28;20120;-67
2021/08/10 11:20:39;;;;;;;7.78;3.95;;;;;;;22.53;54.58;99670.81;5009653;28;20124;-66
2021/08/10 11:25:45;;;;;;;5.97;3.47;;;;;;;22.67;53.47;99671.09;5009312;28;20045;-67
2021/08/10 11:28:43;;;;;;;4.63;3.38;;;;;;;22.67;53.55;99670.28;5007268;28;20359;-66
2021/08/10 11:31:10;;;;;;;5.43;3.78;;;;;;;22.86;52.24;99663.84;5007096;28;20092;-66
2021/08/10 11:33:41;;;;;;;6.85;3.85;;;;;;;23.05;53.30;99660.13;5008167;28;20029;-66
2021/08/10 11:36:12;;;;;;;5.63;3.70;;;;;;;23.14;52.01;99669.94;5007158;28;20041;-66
2021/08/10 11:39:06;;;;;;;4.80;3.25;;;;;;;23.37;53.00;99659.47;5007854;28;20038;-66
2021/08/10 11:41:35;;;;;;;7.22;3.72;;;;;;;23.49;53.28;99660.84;4987023;28;20098;-66
2021/08/10 11:44:18;;;;;;;7.43;3.30;;;;;;;23.39;52.13;99660.16;4990078;28;20101;-66
2021/08/10 11:46:44;;;;;;;5.50;3.33;;;;;;;23.26;51.20;99660.59;5003760;28;20045;-66
2021/08/10 11:49:16;;;;;;;7.90;3.53;;;;;;;23.38;51.32;99666.50;5008660;28;20042;-66